createdAt,value
2022-09-23T00:01:15.152Z,3.30
2022-09-23T00:03:44.974Z,3.28
2022-09-23T00:06:20.034Z,3.70
2022-09-23T00:08:49.434Z,3.50
2022-09-23T00:11:19.528Z,3.28
2022-09-23T00:13:48.845Z,3.40
2022-09-23T00:16:18.689Z,3.10
2022-09-23T00:18:45.686Z,3.47
2022-09-23T00:21:14.620Z,3.90
2022-09-23T00:23:43.050Z,3.83
2022-09-23T00:26:12.325Z,4.10
2022-09-23T00:28:39.401Z,4.07
2022-09-23T00:31:12.847Z,4.88
2022-09-23T00:33:40.707Z,4.82
2022-09-23T00:36:11.058Z,4.47
2022-09-23T00:38:38.818Z,4.82
2022-09-23T00:41:06.421Z,5.10
2022-09-23T00:43:42.187Z,4.90
2022-09-23T00:46:33.938Z,4.47
2022-09-23T00:49:05.644Z,4.60
2022-09-23T00:51:44.539Z,4.82
2022-09-23T00:54:11.619Z,4.57
2022-09-23T00:56:39.413Z,4.28
2022-09-23T00:59:09.678Z,4.35
2022-09-23T01:01:38.108Z,4.75
2022-09-23T01:04:06.812Z,4.32
2022-09-23T01:06:33.513Z,5.10
2022-09-23T01:09:00.175Z,4.70
2022-09-23T01:11:49.504Z,4.43
2022-09-23T01:14:40.663Z,4.30
2022-09-23T01:17:11.400Z,4.25
2022-09-23T01:20:17.748Z,4.03
2022-09-23T01:23:12.912Z,3.90
2022-09-23T01:26:03.905Z,4.43
2022-09-23T01:28:56.744Z,4.10
2022-09-23T01:31:39.499Z,4.25
2022-09-23T01:34:15.930Z,4.38
2022-09-23T01:36:55.273Z,4.60
2022-09-23T01:39:43.474Z,4.75
2022-09-23T01:42:26.334Z,4.40
2022-09-23T01:45:01.014Z,4.10
2022-09-23T01:47:36.384Z,4.53
2022-09-23T01:50:30.368Z,4.60
2022-09-23T01:53:01.468Z,4.63
2022-09-23T01:55:39.327Z,3.60
2022-09-23T01:58:08.395Z,4.43
2022-09-23T02:00:40.808Z,4.20
2022-09-23T02:03:27.447Z,4.30
2022-09-23T02:06:01.629Z,4.43
2022-09-23T02:08:44.459Z,4.10
2022-09-23T02:11:15.273Z,4.13
2022-09-23T02:13:53.438Z,4.88
2022-09-23T02:16:26.194Z,3.92
2022-09-23T02:18:58.215Z,4.28
2022-09-23T02:21:33.840Z,4.10
2022-09-23T02:24:14.640Z,3.90
2022-09-23T02:26:47.250Z,4.00
2022-09-23T02:29:42.034Z,3.90
2022-09-23T02:32:30.893Z,4.00
2022-09-23T02:35:18.105Z,4.15
2022-09-23T02:37:53.295Z,4.07
2022-09-23T02:40:38.746Z,3.88
2022-09-23T02:43:19.785Z,3.92
2022-09-23T02:45:47.442Z,4.23
2022-09-23T02:48:30.312Z,4.40
2022-09-23T02:50:59.072Z,4.38
2022-09-23T02:53:25.817Z,4.37
2022-09-23T02:55:52.589Z,4.83
2022-09-23T02:58:19.498Z,5.35
2022-09-23T03:01:19.095Z,5.70
2022-09-23T03:04:09.195Z,5.38
2022-09-23T03:07:01.332Z,4.90
2022-09-23T03:09:40.450Z,4.87
2022-09-23T03:12:15.955Z,4.50
2022-09-23T03:14:58.751Z,3.80
2022-09-23T03:17:31.508Z,3.30
2022-09-23T03:20:12.733Z,3.10
2022-09-23T03:23:02.474Z,3.30
2022-09-23T03:25:33.337Z,3.13
2022-09-23T03:28:01.713Z,3.80
2022-09-23T03:30:30.038Z,3.50
2022-09-23T03:33:00.440Z,3.47
2022-09-23T03:35:31.289Z,3.47
2022-09-23T03:38:11.984Z,3.70
2022-09-23T03:40:43.288Z,3.63
2022-09-23T03:43:13.263Z,3.40
2022-09-23T03:45:41.612Z,3.20
2022-09-23T03:48:08.670Z,3.23
2022-09-23T03:50:39.150Z,3.70
2022-09-23T03:53:06.753Z,3.50
2022-09-23T03:55:34.802Z,3.37
2022-09-23T03:58:03.182Z,3.20
2022-09-23T04:00:29.992Z,3.20
2022-09-23T04:02:57.240Z,3.50
2022-09-23T04:05:23.848Z,3.20
2022-09-23T04:07:51.106Z,3.17
2022-09-23T04:10:17.952Z,3.20
2022-09-23T04:12:44.699Z,3.30
2022-09-23T04:15:11.895Z,3.40
2022-09-23T04:17:38.589Z,2.80
2022-09-23T04:20:05.936Z,3.23
2022-09-23T04:22:34.421Z,3.43
2022-09-23T04:25:01.139Z,3.30
2022-09-23T04:27:27.743Z,3.57
2022-09-23T04:29:54.358Z,3.53
2022-09-23T04:32:21.073Z,3.40
2022-09-23T04:34:47.712Z,3.17
2022-09-23T04:37:14.364Z,2.80
2022-09-23T04:39:41.149Z,3.20
2022-09-23T04:42:08.019Z,2.80
2022-09-23T04:44:35.060Z,3.30
2022-09-23T04:47:02.008Z,3.20
2022-09-23T04:49:29.945Z,3.00
2022-09-23T04:51:56.617Z,2.90
2022-09-23T04:54:23.369Z,2.90
2022-09-23T04:56:50.141Z,2.80
2022-09-23T04:59:16.884Z,2.73
2022-09-23T05:01:43.769Z,2.73
2022-09-23T05:04:13.959Z,3.40
2022-09-23T05:06:44.107Z,2.53
2022-09-23T05:09:15.870Z,2.90
2022-09-23T05:11:43.414Z,2.30
2022-09-23T05:14:10.444Z,2.60
2022-09-23T05:16:37.670Z,2.77
2022-09-23T05:19:04.532Z,2.73
2022-09-23T05:21:31.898Z,2.70
2022-09-23T05:24:00.578Z,2.40
2022-09-23T05:26:30.111Z,2.72
2022-09-23T05:28:57.064Z,2.73
2022-09-23T05:31:25.847Z,3.00
2022-09-23T05:33:58.031Z,3.10
2022-09-23T05:36:26.206Z,3.17
2022-09-23T05:38:53.067Z,3.03
2022-09-23T05:41:23.250Z,3.00
2022-09-23T05:43:54.227Z,3.13
2022-09-23T05:46:30.374Z,3.30
2022-09-23T05:49:02.116Z,3.00
2022-09-23T05:51:31.360Z,3.10
2022-09-23T05:53:59.648Z,3.07
2022-09-23T05:56:28.324Z,3.00
2022-09-23T05:58:57.177Z,3.33
2022-09-23T06:01:26.362Z,3.10
2022-09-23T06:03:54.698Z,2.83
2022-09-23T06:06:27.255Z,3.03
2022-09-23T06:08:53.898Z,2.87
2022-09-23T06:11:21.538Z,3.10
2022-09-23T06:13:49.301Z,3.33
2022-09-23T06:16:16.751Z,2.90
2022-09-23T06:18:45.867Z,3.08
2022-09-23T06:21:14.760Z,2.95
2022-09-23T06:23:42.696Z,3.43
2022-09-23T06:26:12.173Z,3.70
2022-09-23T06:28:41.825Z,3.30
2022-09-23T06:31:13.993Z,2.97
2022-09-23T06:33:42.416Z,3.97
2022-09-23T06:36:10.179Z,3.38
2022-09-23T06:38:49.388Z,3.03
2022-09-23T06:41:16.616Z,3.20
2022-09-23T06:43:43.256Z,3.10
2022-09-23T06:46:13.820Z,3.63
2022-09-23T06:48:44.091Z,3.20
2022-09-23T06:51:20.291Z,3.50
2022-09-23T06:53:48.185Z,3.40
2022-09-23T06:56:16.748Z,3.10
2022-09-23T06:58:43.803Z,3.50
2022-09-23T07:01:13.001Z,3.30
2022-09-23T07:03:39.969Z,3.63
2022-09-23T07:06:07.317Z,3.57
2022-09-23T07:08:35.179Z,3.30
2022-09-23T07:11:04.870Z,3.58
2022-09-23T07:13:33.394Z,3.58
2022-09-23T07:16:04.612Z,3.70
2022-09-23T07:18:36.826Z,3.60
2022-09-23T07:21:18.098Z,3.30
2022-09-23T07:23:50.390Z,3.90
2022-09-23T07:26:18.234Z,3.85
2022-09-23T07:28:45.477Z,3.43
2022-09-23T07:31:22.713Z,3.65
2022-09-23T07:33:57.203Z,3.92
2022-09-23T07:36:24.148Z,3.80
2022-09-23T07:38:51.202Z,3.50
2022-09-23T07:41:19.275Z,3.70
2022-09-23T07:43:46.432Z,3.58
2022-09-23T07:46:16.842Z,3.97
2022-09-23T07:48:44.678Z,3.75
2022-09-23T07:51:20.264Z,3.88
2022-09-23T07:53:51.961Z,3.50
2022-09-23T07:56:20.239Z,3.95
2022-09-23T07:59:00.483Z,3.63
2022-09-23T08:01:36.028Z,3.97
2022-09-23T08:04:06.831Z,3.90
2022-09-23T08:06:33.720Z,3.72
2022-09-23T08:09:01.109Z,3.53
2022-09-23T08:11:28.537Z,3.60
2022-09-23T08:13:55.864Z,4.38
2022-09-23T08:16:22.591Z,3.65
2022-09-23T08:18:49.516Z,4.13
2022-09-23T08:21:23.261Z,3.75
2022-09-23T08:23:50.902Z,3.83
2022-09-23T08:26:21.408Z,3.83
2022-09-23T08:28:48.927Z,3.67
2022-09-23T08:31:15.728Z,3.70
2022-09-23T08:33:42.975Z,3.97
2022-09-23T08:36:09.660Z,3.78
2022-09-23T08:38:36.320Z,3.40
2022-09-23T08:41:24.828Z,3.53
2022-09-23T08:43:59.912Z,3.60
2022-09-23T08:46:32.157Z,4.03
2022-09-23T08:49:01.245Z,4.22
2022-09-23T08:51:46.247Z,3.70
2022-09-23T08:54:13.982Z,3.85
2022-09-23T08:56:44.419Z,3.50
2022-09-23T08:59:49.804Z,3.42
2022-09-23T09:02:21.457Z,3.47
2022-09-23T09:04:53.746Z,3.15
2022-09-23T09:07:36.527Z,3.60
2022-09-23T09:10:13.233Z,3.50
2022-09-23T09:12:45.187Z,4.25
2022-09-23T09:15:29.189Z,3.63
2022-09-23T09:18:06.767Z,3.80
2022-09-23T09:20:34.994Z,3.80
2022-09-23T09:23:25.548Z,4.43
2022-09-23T09:26:01.393Z,3.20
2022-09-23T09:28:35.710Z,4.68
2022-09-23T09:31:14.496Z,3.47
2022-09-23T09:33:47.185Z,3.90
2022-09-23T09:36:44.743Z,5.32
2022-09-23T09:39:13.857Z,4.82
2022-09-23T09:41:52.361Z,4.25
2022-09-23T09:44:37.337Z,4.68
2022-09-23T09:47:28.488Z,4.55
2022-09-23T09:50:04.552Z,4.70
2022-09-23T09:52:31.785Z,3.60
2022-09-23T09:55:13.674Z,4.53
2022-09-23T09:57:53.722Z,4.85
2022-09-23T10:00:26.532Z,4.60
2022-09-23T10:02:59.320Z,5.00
2022-09-23T10:05:52.392Z,3.70
2022-09-23T10:08:33.458Z,3.75
2022-09-23T10:11:20.600Z,4.00
2022-09-23T10:14:17.621Z,4.03
2022-09-23T10:17:01.874Z,3.47
2022-09-23T10:19:29.503Z,4.05
2022-09-23T10:22:00.142Z,3.67
2022-09-23T10:24:30.487Z,4.65
2022-09-23T10:27:11.258Z,4.10
2022-09-23T10:29:48.899Z,4.18
2022-09-23T10:32:31.632Z,4.30
2022-09-23T10:35:01.299Z,4.40
2022-09-23T10:37:36.563Z,4.88
2022-09-23T10:40:40.445Z,3.50
2022-09-23T10:43:53.388Z,3.75
2022-09-23T10:46:38.879Z,3.70
2022-09-23T10:49:33.706Z,3.58
2022-09-23T10:52:22.216Z,3.60
2022-09-23T10:55:10.161Z,3.72
2022-09-23T10:57:42.876Z,3.40
2022-09-23T11:00:28.226Z,3.13
2022-09-23T11:03:22.192Z,3.55
2022-09-23T11:06:18.250Z,3.50
2022-09-23T11:09:06.564Z,3.42
2022-09-23T11:12:09.136Z,3.42
2022-09-23T11:15:02.406Z,2.83
2022-09-23T11:17:50.661Z,3.17
2022-09-23T11:20:27.403Z,3.40
2022-09-23T11:23:19.699Z,3.65
2022-09-23T11:26:10.340Z,3.30
2022-09-23T11:28:55.441Z,3.17
2022-09-23T11:31:31.431Z,3.10
2022-09-23T11:33:58.015Z,3.00
2022-09-23T11:36:37.784Z,3.28
2022-09-23T11:39:19.202Z,3.40
2022-09-23T11:41:47.387Z,3.00
2022-09-23T11:44:22.807Z,3.08
2022-09-23T11:47:01.560Z,2.65
2022-09-23T11:49:37.136Z,3.45
2022-09-23T11:52:21.726Z,3.70
2022-09-23T11:55:22.315Z,2.95
2022-09-23T11:57:56.964Z,2.97
2022-09-23T12:00:27.333Z,2.97
2022-09-23T12:03:36.338Z,2.95
2022-09-23T12:06:15.056Z,3.08
2022-09-23T12:08:41.707Z,2.33
2022-09-23T12:11:27.225Z,2.50
2022-09-23T12:14:31.078Z,2.55
2022-09-23T12:17:27.959Z,2.70
2022-09-23T12:20:22.275Z,2.55
2022-09-23T12:22:55.195Z,2.55
2022-09-23T12:25:26.602Z,2.45
2022-09-23T12:27:56.085Z,2.22
2022-09-23T12:30:28.365Z,2.42
2022-09-23T12:33:14.793Z,3.10
2022-09-23T12:35:45.511Z,2.30
2022-09-23T12:38:33.354Z,2.90
2022-09-23T12:41:00.391Z,2.92
2022-09-23T12:43:32.055Z,2.63
2022-09-23T12:46:21.699Z,2.88
2022-09-23T12:48:58.003Z,2.72
2022-09-23T12:51:26.885Z,2.60
2022-09-23T12:54:05.713Z,2.58
2022-09-23T12:56:38.719Z,3.10
2022-09-23T12:59:17.538Z,2.50
2022-09-23T13:01:45.150Z,2.72
2022-09-23T13:05:13.681Z,2.67
2022-09-23T13:07:45.469Z,2.28
2022-09-23T13:10:27.690Z,2.80
2022-09-23T13:12:55.869Z,2.67
2022-09-23T13:15:31.461Z,2.75
2022-09-23T13:18:23.129Z,2.63
2022-09-23T13:20:56.894Z,2.60
2022-09-23T13:23:33.824Z,2.75
2022-09-23T13:26:09.089Z,2.70
2022-09-23T13:28:53.520Z,3.05
2022-09-23T13:31:21.237Z,2.75
2022-09-23T13:33:52.573Z,2.50
2022-09-23T13:36:21.086Z,2.50
2022-09-23T13:38:48.300Z,2.88
2022-09-23T13:41:23.938Z,2.25
2022-09-23T13:43:55.280Z,2.40
2022-09-23T13:46:26.287Z,3.10
2022-09-23T13:48:54.901Z,3.00
2022-09-23T13:51:33.953Z,2.63
2022-09-23T13:54:03.473Z,2.70
2022-09-23T13:56:32.500Z,2.60
2022-09-23T13:59:26.268Z,2.97
2022-09-23T14:02:16.882Z,2.63
2022-09-23T14:04:43.951Z,2.33
2022-09-23T14:07:13.288Z,2.85
2022-09-23T14:09:45.972Z,2.92
2022-09-23T14:12:13.056Z,2.90
2022-09-23T14:14:41.423Z,2.72
2022-09-23T14:17:10.276Z,2.72
2022-09-23T14:19:37.337Z,2.45
2022-09-23T14:22:04.145Z,3.05
2022-09-23T14:24:38.278Z,2.92
2022-09-23T14:27:14.166Z,2.58
2022-09-23T14:29:44.214Z,6.30
2022-09-23T14:32:21.232Z,2.50
2022-09-23T14:35:00.622Z,2.45
2022-09-23T14:37:54.955Z,2.50
2022-09-23T14:40:37.615Z,2.58
2022-09-23T14:43:19.273Z,2.65
2022-09-23T14:45:50.353Z,2.50
2022-09-23T14:48:22.798Z,2.83
2022-09-23T14:50:52.441Z,2.67
2022-09-23T14:53:19.086Z,2.70
2022-09-23T14:55:47.073Z,2.45
2022-09-23T14:58:18.238Z,2.58
2022-09-23T15:00:59.891Z,2.65
2022-09-23T15:03:28.427Z,2.70
2022-09-23T15:06:08.350Z,2.45
2022-09-23T15:08:36.528Z,2.70
2022-09-23T15:11:08.189Z,2.38
2022-09-23T15:13:40.402Z,2.55
2022-09-23T15:16:07.688Z,2.40
2022-09-23T15:18:41.139Z,2.83
2022-09-23T15:21:09.525Z,2.65
2022-09-23T15:23:48.035Z,2.40
2022-09-23T15:26:15.915Z,2.38
2022-09-23T15:28:43.760Z,2.55
2022-09-23T15:31:16.023Z,2.67
2022-09-23T15:33:47.638Z,2.30
2022-09-23T15:36:22.886Z,2.88
2022-09-23T15:38:49.826Z,2.40
2022-09-23T15:41:17.408Z,2.15
2022-09-23T15:43:44.158Z,2.40
2022-09-23T15:46:25.131Z,2.00
2022-09-23T15:49:05.460Z,2.50
2022-09-23T15:51:32.207Z,2.95
2022-09-23T15:53:58.925Z,3.08
2022-09-23T15:56:27.142Z,3.35
2022-09-23T15:58:53.866Z,2.55
2022-09-23T16:01:31.973Z,2.63
2022-09-23T16:04:01.335Z,2.50
2022-09-23T16:06:28.181Z,2.63
2022-09-23T16:08:55.679Z,2.33
2022-09-23T16:11:31.588Z,3.15
2022-09-23T16:13:59.598Z,3.10
2022-09-23T16:16:27.826Z,3.08
2022-09-23T16:18:55.342Z,3.45
2022-09-23T16:21:26.243Z,2.90
2022-09-23T16:23:54.429Z,3.45
2022-09-23T16:26:24.268Z,3.60
2022-09-23T16:28:54.534Z,3.22
2022-09-23T16:31:25.093Z,2.72
2022-09-23T16:33:53.161Z,2.90
2022-09-23T16:36:27.290Z,2.78
2022-09-23T16:38:57.808Z,2.92
2022-09-23T16:41:25.773Z,3.25
2022-09-23T16:43:53.568Z,2.83
2022-09-23T16:46:21.021Z,10.95
2022-09-23T16:48:52.374Z,7.20
2022-09-23T16:51:21.934Z,5.38
2022-09-23T16:53:50.246Z,4.93
2022-09-23T16:56:24.254Z,4.28
2022-09-23T16:58:54.892Z,3.63
2022-09-23T17:01:44.888Z,4.00
2022-09-23T17:04:13.657Z,3.58
2022-09-23T17:06:51.939Z,3.50
2022-09-23T17:09:27.060Z,3.20
2022-09-23T17:12:09.546Z,3.50
2022-09-23T17:14:36.228Z,5.25
2022-09-23T17:17:02.880Z,5.50
2022-09-23T17:19:29.555Z,5.38
2022-09-23T17:21:56.189Z,5.13
2022-09-23T17:24:22.930Z,5.18
2022-09-23T17:26:53.032Z,4.80
2022-09-23T17:29:20.253Z,5.10
2022-09-23T17:31:46.998Z,4.22
2022-09-23T17:34:13.929Z,4.97
2022-09-23T17:36:40.667Z,4.90
2022-09-23T17:39:07.498Z,4.10
2022-09-23T17:41:34.268Z,5.35
2022-09-23T17:44:01.468Z,4.80
2022-09-23T17:46:30.060Z,4.88
2022-09-23T17:48:57.561Z,5.00
2022-09-23T17:51:27.176Z,3.83
2022-09-23T17:53:53.916Z,3.22
2022-09-23T17:56:23.043Z,2.97
2022-09-23T17:58:50.300Z,3.17
2022-09-23T18:01:25.705Z,3.28
2022-09-23T18:03:57.391Z,3.35
2022-09-23T18:06:26.236Z,3.67
2022-09-23T18:08:53.336Z,3.17
2022-09-23T18:11:22.404Z,3.00
2022-09-23T18:13:57.042Z,3.38
2022-09-23T18:16:29.735Z,3.10
2022-09-23T18:18:59.042Z,2.95
2022-09-23T18:21:28.171Z,3.13
2022-09-23T18:23:59.774Z,3.15
2022-09-23T18:26:33.940Z,2.67
2022-09-23T18:29:01.535Z,3.10
2022-09-23T18:31:32.582Z,2.90
2022-09-23T18:34:00.100Z,3.25
2022-09-23T18:36:27.973Z,2.58
2022-09-23T18:38:55.460Z,3.05
2022-09-23T18:41:22.143Z,3.75
2022-09-23T18:43:49.343Z,3.60
2022-09-23T18:46:18.422Z,3.40
2022-09-23T18:49:04.377Z,2.67
2022-09-23T18:51:32.581Z,3.17
2022-09-23T18:54:01.472Z,2.58
2022-09-23T18:56:37.035Z,3.22
2022-09-23T18:59:06.239Z,2.67
2022-09-23T19:01:33.438Z,3.05
2022-09-23T19:04:02.492Z,3.33
2022-09-23T19:06:31.665Z,3.30
2022-09-23T19:08:58.583Z,3.15
2022-09-23T19:11:25.367Z,2.83
2022-09-23T19:13:57.111Z,3.20
2022-09-23T19:16:25.733Z,3.05
2022-09-23T19:18:52.896Z,3.17
2022-09-23T19:21:22.113Z,2.88
2022-09-23T19:23:51.578Z,3.25
2022-09-23T19:26:21.672Z,3.33
2022-09-23T19:28:50.429Z,3.50
2022-09-23T19:31:22.160Z,3.33
2022-09-23T19:33:59.176Z,3.65
2022-09-23T19:36:31.730Z,2.90
2022-09-23T19:39:04.242Z,3.50
2022-09-23T19:41:32.142Z,3.38
2022-09-23T19:44:02.393Z,3.17
2022-09-23T19:46:39.472Z,3.83
2022-09-23T19:49:07.433Z,3.20
2022-09-23T19:51:34.899Z,3.83
2022-09-23T19:54:03.237Z,3.92
2022-09-23T19:56:32.287Z,3.83
2022-09-23T19:58:59.744Z,3.70
2022-09-23T20:01:28.524Z,3.67
2022-09-23T20:03:55.638Z,3.35
2022-09-23T20:06:22.369Z,3.88
2022-09-23T20:08:49.813Z,3.47
2022-09-23T20:11:18.865Z,3.35
2022-09-23T20:13:49.377Z,3.75
2022-09-23T20:16:18.674Z,3.67
2022-09-23T20:18:46.755Z,3.38
2022-09-23T20:21:15.190Z,3.83
2022-09-23T20:23:42.526Z,4.22
2022-09-23T20:26:28.790Z,4.28
2022-09-23T20:28:55.688Z,4.70
2022-09-23T20:31:23.414Z,4.72
2022-09-23T20:34:00.399Z,4.72
2022-09-23T20:36:28.882Z,4.85
2022-09-23T20:38:57.506Z,4.63
2022-09-23T20:41:24.175Z,6.57
2022-09-23T20:43:54.672Z,5.80
2022-09-23T20:46:24.228Z,5.60
2022-09-23T20:48:51.130Z,9.15
2022-09-23T20:51:17.871Z,10.40
2022-09-23T20:53:45.763Z,8.02
2022-09-23T20:56:14.978Z,6.50
2022-09-23T20:58:43.069Z,6.18
2022-09-23T21:01:10.996Z,5.78
2022-09-23T21:03:40.574Z,6.15
2022-09-23T21:06:09.088Z,6.82
2022-09-23T21:08:37.369Z,5.75
2022-09-23T21:11:10.361Z,5.80
2022-09-23T21:13:37.495Z,5.40
2022-09-23T21:16:06.897Z,5.88
2022-09-23T21:18:35.197Z,5.47
2022-09-23T21:21:02.080Z,8.73
2022-09-23T21:23:33.867Z,7.75
2022-09-23T21:26:04.547Z,7.60
2022-09-23T21:28:36.509Z,6.63
2022-09-23T21:31:17.579Z,6.50
2022-09-23T21:33:44.614Z,7.15
2022-09-23T21:36:11.292Z,6.70
2022-09-23T21:38:38.016Z,7.38
2022-09-23T21:41:07.464Z,6.28
2022-09-23T21:43:37.327Z,6.72
2022-09-23T21:46:10.337Z,6.80
2022-09-23T21:48:41.312Z,6.82
2022-09-23T21:51:15.679Z,6.35
2022-09-23T21:53:44.507Z,8.95
2022-09-23T21:56:20.473Z,7.68
2022-09-23T21:58:47.869Z,7.68
2022-09-23T22:01:16.085Z,7.53
2022-09-23T22:03:44.305Z,6.70
2022-09-23T22:06:13.834Z,8.02
2022-09-23T22:08:42.516Z,7.70
2022-09-23T22:11:34.415Z,7.97
2022-09-23T22:14:03.854Z,7.55
2022-09-23T22:16:30.665Z,8.27
2022-09-23T22:19:00.118Z,7.85
2022-09-23T22:21:29.917Z,8.50
2022-09-23T22:24:01.128Z,8.55
2022-09-23T22:26:48.106Z,8.43
2022-09-23T22:29:34.705Z,8.75
2022-09-23T22:32:21.566Z,7.72
2022-09-23T22:34:51.065Z,7.78
2022-09-23T22:37:25.711Z,7.20
2022-09-23T22:39:53.403Z,7.35
2022-09-23T22:42:22.377Z,7.50
2022-09-23T22:44:50.029Z,7.88
2022-09-23T22:47:20.314Z,7.28
2022-09-23T22:49:47.799Z,7.38
2022-09-23T22:52:20.783Z,7.82
2022-09-23T22:54:47.522Z,8.07
2022-09-23T22:57:15.288Z,7.45
2022-09-23T22:59:43.876Z,7.68
2022-09-23T23:02:10.518Z,7.28
2022-09-23T23:04:37.221Z,7.78
2022-09-23T23:07:06.004Z,8.02
2022-09-23T23:09:32.805Z,8.85
2022-09-23T23:11:59.453Z,7.50
2022-09-23T23:14:27.889Z,7.55
2022-09-23T23:16:55.034Z,6.38
2022-09-23T23:19:21.919Z,6.97
2022-09-23T23:21:50.089Z,6.82
2022-09-23T23:24:22.731Z,7.38
2022-09-23T23:26:50.800Z,6.95
2022-09-23T23:29:19.736Z,7.70
2022-09-23T23:31:47.161Z,7.32
2022-09-23T23:34:19.331Z,7.47
2022-09-23T23:36:47.906Z,7.35
2022-09-23T23:39:14.630Z,7.25
2022-09-23T23:41:41.615Z,7.32
2022-09-23T23:44:09.077Z,7.20
2022-09-23T23:46:37.229Z,7.25
2022-09-23T23:49:04.880Z,7.28
2022-09-23T23:51:31.658Z,7.53
2022-09-23T23:53:59.870Z,7.35
2022-09-23T23:56:27.609Z,7.65
2022-09-23T23:58:59.421Z,8.15
